KMKG/MKG METAR and TAF weather

Enter ICAO airport designator
Station Type Date Time Source
KMKG METAR 2021/09/20 04:55 UTC NOAA

KMKG 200455Z AUTO 14010G21KT 10SM CLR 23/18 A3003 RMK AO2 SLP166 T02330178 403060133


Station Type Date Time Source
KMKG Decoded METAR 2021/09/20 04:55 UTC NOAA

MUSKEGON COUNTY AIRPORT, MI, United States (KMKG) 43-10N 086-14W 191M
Sep 20, 2021 - 12:55 AM EDT / 2021.09.20 0455 UTC
Wind: from the SE (140 degrees) at 12 MPH (10 KT) gusting to 24 MPH (21 KT):0
Visibility: 10 mile(s):0
Sky conditions: clear
Temperature: 73.9 F (23.3 C)
Dew Point: 64.0 F (17.8 C)
Relative Humidity: 71%
Pressure (altimeter): 30.03 in. Hg (1016 hPa)
ob: KMKG 200455Z AUTO 14010G21KT 10SM CLR 23/18 A3003 RMK AO2 SLP166 T02330178 403060133
cycle: 5

Station Type Date Time Source
KMKG TAF 2021/09/20 05:59 UTC NOAA

TAF
AMD KMKG 200459Z 2005/2024 14010G18KT P6SM BKN250
FM201500 17011G20KT P6SM VCSH BKN027
FM201800 16014G25KT P6SM OVC008

Example: see airport list